Time;durP1;ratioP1;P1;durP2;ratioP2;P2;SDS_P1;SDS_P2;PMS_P1;PMS_P2;Temp;Humidity;BMP_temperature;BMP_pressure;BME280_temperature;BME280_humidity;BME280_pressure;Samples;Min_cycle;Max_cycle;Signal;HPM_P1;HPM_P2
2021/11/03 00:00:04;;;;;;;;;;;23.60;30.50;;;;;;479508;248;1250;-71
2021/11/03 00:02:05;;;;;;;;;;;23.60;30.40;;;;;;479468;248;1199;-71
2021/11/03 00:04:08;;;;;;;;;;;23.40;30.70;;;;;;479464;248;1127;-71
2021/11/03 00:06:08;;;;;;;;;;;23.40;30.50;;;;;;479339;248;1465;-71
2021/11/03 00:08:09;;;;;;;;;;;23.30;30.70;;;;;;479466;248;1002;-71
2021/11/03 00:10:11;;;;;;;;;;;23.40;30.80;;;;;;479466;248;1070;-71
2021/11/03 00:12:12;;;;;;;;;;;23.40;30.60;;;;;;479484;248;1228;-71
2021/11/03 00:14:13;;;;;;;;;;;23.50;30.50;;;;;;479495;248;974;-71
2021/11/03 00:16:15;;;;;;;;;;;23.60;30.30;;;;;;479454;248;1287;-71
2021/11/03 00:18:16;;;;;;;;;;;23.50;30.50;;;;;;479506;248;2205;-71
2021/11/03 00:20:17;;;;;;;;;;;23.50;30.40;;;;;;479499;248;1037;-71
2021/11/03 00:22:19;;;;;;;;;;;23.40;30.50;;;;;;479452;248;1166;-71
2021/11/03 00:24:20;;;;;;;;;;;23.50;30.50;;;;;;479517;248;973;-71
2021/11/03 00:26:21;;;;;;;;;;;23.50;30.50;;;;;;479482;245;1211;-71
2021/11/03 00:28:23;;;;;;;;;;;23.30;30.50;;;;;;479597;248;1173;-71
2021/11/03 00:30:24;;;;;;;;;;;23.10;30.70;;;;;;479539;248;956;-71
2021/11/03 00:32:25;;;;;;;;;;;23.50;30.50;;;;;;479402;248;1186;-71
2021/11/03 00:34:27;;;;;;;;;;;23.40;30.50;;;;;;479410;248;1082;-71
2021/11/03 00:36:28;;;;;;;;;;;23.50;30.40;;;;;;479466;245;1219;-71
2021/11/03 00:38:29;;;;;;;;;;;23.60;30.20;;;;;;479580;248;2146;-71
2021/11/03 00:40:31;;;;;;;;;;;23.00;30.80;;;;;;479512;248;1004;-71
2021/11/03 00:42:32;;;;;;;;;;;23.10;30.80;;;;;;479474;248;1137;-71
2021/11/03 00:44:33;;;;;;;;;;;23.10;30.80;;;;;;479534;248;998;-71
2021/11/03 00:46:35;;;;;;;;;;;23.20;30.80;;;;;;479508;245;1176;-71
2021/11/03 00:48:36;;;;;;;;;;;23.20;30.60;;;;;;479588;248;962;-71
2021/11/03 00:50:37;;;;;;;;;;;23.40;30.50;;;;;;479524;248;946;-71
2021/11/03 00:52:39;;;;;;;;;;;23.50;30.50;;;;;;479459;248;1186;-71
2021/11/03 00:54:40;;;;;;;;;;;23.40;30.30;;;;;;479483;248;985;-71
2021/11/03 00:56:41;;;;;;;;;;;23.30;30.60;;;;;;479385;246;1195;-71
2021/11/03 00:58:42;;;;;;;;;;;23.30;30.40;;;;;;479487;248;2147;-71
2021/11/03 01:00:44;;;;;;;;;;;23.20;30.60;;;;;;479419;248;998;-71
2021/11/03 01:02:45;;;;;;;;;;;23.30;30.60;;;;;;479577;248;1077;-71
2021/11/03 01:04:47;;;;;;;;;;;23.20;30.70;;;;;;479574;248;1028;-71
2021/11/03 01:06:48;;;;;;;;;;;23.40;30.50;;;;;;479497;248;1156;-71
2021/11/03 01:08:49;;;;;;;;;;;23.50;30.30;;;;;;479544;248;1105;-71
2021/11/03 01:10:51;;;;;;;;;;;23.40;30.30;;;;;;479439;248;1130;-71
2021/11/03 01:12:52;;;;;;;;;;;23.40;30.40;;;;;;479505;248;1134;-71
2021/11/03 01:14:54;;;;;;;;;;;23.30;30.50;;;;;;479551;248;954;-71
2021/11/03 01:16:55;;;;;;;;;;;23.40;30.30;;;;;;479417;248;1220;-71
2021/11/03 01:18:57;;;;;;;;;;;23.30;30.20;;;;;;479557;248;2210;-71
2021/11/03 01:20:58;;;;;;;;;;;23.40;30.30;;;;;;479499;248;1192;-71
2021/11/03 01:22:59;;;;;;;;;;;23.50;30.10;;;;;;479521;248;1138;-71
2021/11/03 01:25:01;;;;;;;;;;;23.30;30.30;;;;;;479526;248;1049;-71
2021/11/03 01:27:02;;;;;;;;;;;23.20;30.40;;;;;;479435;248;1248;-71
2021/11/03 01:29:03;;;;;;;;;;;23.50;30.20;;;;;;479529;248;1179;-71
2021/11/03 01:31:05;;;;;;;;;;;23.20;30.30;;;;;;479530;245;1203;-71
2021/11/03 01:33:06;;;;;;;;;;;23.40;30.30;;;;;;479491;248;1460;-71
2021/11/03 01:35:07;;;;;;;;;;;23.30;30.30;;;;;;479507;248;985;-71
2021/11/03 01:37:09;;;;;;;;;;;23.40;30.30;;;;;;479475;248;1100;-71
2021/11/03 01:39:10;;;;;;;;;;;23.20;30.30;;;;;;479563;248;2111;-71
2021/11/03 01:41:11;;;;;;;;;;;23.40;30.20;;;;;;479451;245;1346;-71
2021/11/03 01:43:13;;;;;;;;;;;23.30;30.30;;;;;;479574;248;1103;-71
2021/11/03 01:45:14;;;;;;;;;;;23.30;30.30;;;;;;479551;248;1031;-71
2021/11/03 01:47:15;;;;;;;;;;;23.30;30.20;;;;;;479504;248;1240;-71
2021/11/03 01:49:17;;;;;;;;;;;23.50;30.20;;;;;;479620;248;1022;-71
2021/11/03 01:51:18;;;;;;;;;;;23.40;30.10;;;;;;479505;245;1444;-71
2021/11/03 01:53:20;;;;;;;;;;;23.50;30.10;;;;;;479471;248;1063;-71
2021/11/03 01:55:21;;;;;;;;;;;23.50;30.10;;;;;;479474;248;1310;-71
2021/11/03 01:57:23;;;;;;;;;;;23.40;30.10;;;;;;479461;248;1083;-71
2021/11/03 01:59:23;;;;;;;;;;;23.50;30.10;;;;;;479385;248;2177;-71
2021/11/03 02:01:25;;;;;;;;;;;23.60;30.00;;;;;;479513;248;1183;-71
2021/11/03 02:03:26;;;;;;;;;;;23.30;30.20;;;;;;479609;248;941;-71
2021/11/03 02:05:27;;;;;;;;;;;23.30;30.20;;;;;;479618;248;1241;-71
2021/11/03 02:07:29;;;;;;;;;;;23.40;30.20;;;;;;479466;248;1111;-71
2021/11/03 02:09:30;;;;;;;;;;;23.40;30.10;;;;;;479507;248;1019;-71
2021/11/03 02:11:31;;;;;;;;;;;23.40;30.10;;;;;;479392;248;1212;-71
2021/11/03 02:13:33;;;;;;;;;;;23.40;30.00;;;;;;479466;248;1141;-71
2021/11/03 02:15:34;;;;;;;;;;;23.50;30.10;;;;;;479513;248;1492;-71
2021/11/03 02:17:35;;;;;;;;;;;23.30;30.00;;;;;;479507;248;1028;-71
2021/11/03 02:19:37;;;;;;;;;;;23.30;30.10;;;;;;479539;248;2189;-71
2021/11/03 02:21:38;;;;;;;;;;;23.30;30.10;;;;;;479524;248;1361;-71
2021/11/03 02:23:39;;;;;;;;;;;23.20;30.20;;;;;;479421;248;1260;-71
2021/11/03 02:25:42;;;;;;;;;;;23.40;30.00;;;;;;479486;248;1283;-71
2021/11/03 02:27:42;;;;;;;;;;;23.50;29.90;;;;;;479441;248;1371;-71
2021/11/03 02:29:43;;;;;;;;;;;23.60;29.80;;;;;;479605;248;1174;-71
2021/11/03 02:31:46;;;;;;;;;;;23.50;29.80;;;;;;479482;248;1474;-71
2021/11/03 02:33:46;;;;;;;;;;;23.20;30.00;;;;;;479459;248;1388;-71
2021/11/03 02:35:48;;;;;;;;;;;23.20;30.10;;;;;;479503;245;1150;-71
2021/11/03 02:37:49;;;;;;;;;;;23.50;30.00;;;;;;479521;248;1104;-71
2021/11/03 02:39:50;;;;;;;;;;;23.50;29.80;;;;;;479584;248;2126;-71
2021/11/03 02:41:52;;;;;;;;;;;23.40;29.80;;;;;;479437;248;1134;-71
2021/11/03 02:43:53;;;;;;;;;;;23.40;29.90;;;;;;479588;248;1198;-71
2021/11/03 02:45:54;;;;;;;;;;;23.40;29.90;;;;;;479510;248;1146;-71
2021/11/03 02:47:56;;;;;;;;;;;23.50;29.80;;;;;;479590;248;1100;-71
2021/11/03 02:49:57;;;;;;;;;;;23.60;29.70;;;;;;479603;248;1089;-71
2021/11/03 02:51:58;;;;;;;;;;;23.30;29.90;;;;;;479547;248;1346;-71
2021/11/03 02:54:03;;;;;;;;;;;23.40;30.00;;;;;;479617;248;1044;-71
2021/11/03 02:56:02;;;;;;;;;;;23.50;29.80;;;;;;479473;248;1368;-71
2021/11/03 02:58:03;;;;;;;;;;;23.40;29.70;;;;;;479510;248;1078;-71
2021/11/03 03:00:04;;;;;;;;;;;23.60;29.60;;;;;;479496;248;2213;-71
2021/11/03 03:02:06;;;;;;;;;;;23.60;29.50;;;;;;479494;248;1163;-71
2021/11/03 03:04:07;;;;;;;;;;;23.60;29.50;;;;;;479583;248;957;-71
2021/11/03 03:06:09;;;;;;;;;;;23.70;29.50;;;;;;479517;248;1104;-71
2021/11/03 03:08:10;;;;;;;;;;;23.50;29.50;;;;;;479554;248;1129;-71
2021/11/03 03:10:11;;;;;;;;;;;23.50;29.60;;;;;;479583;248;965;-71
2021/11/03 03:12:15;;;;;;;;;;;23.50;29.50;;;;;;479440;248;1234;-71
2021/11/03 03:14:16;;;;;;;;;;;23.40;29.60;;;;;;479497;248;1047;-71
2021/11/03 03:16:17;;;;;;;;;;;23.30;29.60;;;;;;479537;248;1272;-71
2021/11/03 03:18:18;;;;;;;;;;;23.50;29.50;;;;;;479503;248;1115;-71
2021/11/03 03:20:20;;;;;;;;;;;23.60;29.50;;;;;;479517;248;2183;-71
2021/11/03 03:22:21;;;;;;;;;;;23.60;29.40;;;;;;479440;248;1477;-71
2021/11/03 03:24:22;;;;;;;;;;;23.50;29.50;;;;;;479550;248;1010;-71
2021/11/03 03:26:24;;;;;;;;;;;23.50;29.60;;;;;;479627;246;1116;-71
2021/11/03 03:28:25;;;;;;;;;;;23.60;29.50;;;;;;479568;248;1047;-71
2021/11/03 03:30:26;;;;;;;;;;;23.50;29.50;;;;;;479542;248;1186;-71
2021/11/03 03:32:28;;;;;;;;;;;23.60;29.60;;;;;;479526;248;1123;-71
2021/11/03 03:34:29;;;;;;;;;;;23.50;29.60;;;;;;479538;248;1169;-71
2021/11/03 03:36:30;;;;;;;;;;;23.50;29.50;;;;;;479487;246;1262;-71
2021/11/03 03:38:32;;;;;;;;;;;23.40;29.60;;;;;;479566;248;1167;-71
2021/11/03 03:40:33;;;;;;;;;;;23.50;29.70;;;;;;479486;248;2127;-71
2021/11/03 03:42:34;;;;;;;;;;;23.60;29.70;;;;;;479446;248;1094;-71
2021/11/03 03:44:36;;;;;;;;;;;23.40;29.70;;;;;;479460;248;1247;-71
2021/11/03 03:46:37;;;;;;;;;;;23.50;29.60;;;;;;479394;248;1220;-71
2021/11/03 03:48:38;;;;;;;;;;;23.50;29.70;;;;;;479557;248;980;-71
2021/11/03 03:50:40;;;;;;;;;;;23.50;29.60;;;;;;479591;248;1470;-71
2021/11/03 03:52:42;;;;;;;;;;;23.40;29.80;;;;;;479445;248;1190;-71
2021/11/03 03:54:42;;;;;;;;;;;23.50;29.80;;;;;;479442;248;1500;-71
2021/11/03 03:56:44;;;;;;;;;;;23.40;29.70;;;;;;479445;246;1195;-71
2021/11/03 03:58:45;;;;;;;;;;;23.60;29.50;;;;;;479569;248;2185;-71
2021/11/03 04:00:46;;;;;;;;;;;23.40;29.70;;;;;;479540;245;1193;-71
2021/11/03 04:02:48;;;;;;;;;;;23.50;29.70;;;;;;479585;248;1184;-71
2021/11/03 04:04:49;;;;;;;;;;;23.60;29.60;;;;;;479533;248;968;-71
2021/11/03 04:06:50;;;;;;;;;;;23.50;29.50;;;;;;479436;245;1450;-71
2021/11/03 04:08:52;;;;;;;;;;;23.40;29.60;;;;;;479537;248;1027;-71
2021/11/03 04:10:53;;;;;;;;;;;23.50;29.60;;;;;;479463;248;1148;-71
2021/11/03 04:12:54;;;;;;;;;;;23.50;29.60;;;;;;479456;248;1329;-71
2021/11/03 04:14:56;;;;;;;;;;;23.50;29.60;;;;;;479527;248;1090;-71
2021/11/03 04:16:57;;;;;;;;;;;23.60;29.50;;;;;;479473;248;1351;-71
2021/11/03 04:18:58;;;;;;;;;;;23.40;29.60;;;;;;479573;248;2194;-71
2021/11/03 04:21:00;;;;;;;;;;;23.40;29.60;;;;;;479561;248;1098;-71
2021/11/03 04:23:01;;;;;;;;;;;23.30;29.60;;;;;;479556;248;1101;-71
2021/11/03 04:25:02;;;;;;;;;;;23.60;29.40;;;;;;479611;248;938;-71
2021/11/03 04:27:04;;;;;;;;;;;23.30;29.50;;;;;;479571;248;1217;-71
2021/11/03 04:29:05;;;;;;;;;;;23.20;29.80;;;;;;479493;248;981;-71
2021/11/03 04:31:06;;;;;;;;;;;23.20;29.60;;;;;;479439;248;1259;-71
2021/11/03 04:33:08;;;;;;;;;;;23.10;29.80;;;;;;479552;248;1059;-71
2021/11/03 04:35:09;;;;;;;;;;;23.20;29.70;;;;;;479571;248;1144;-71
2021/11/03 04:37:11;;;;;;;;;;;23.30;29.60;;;;;;479511;248;1177;-71
2021/11/03 04:39:12;;;;;;;;;;;23.40;29.50;;;;;;479562;248;2198;-71
2021/11/03 04:41:13;;;;;;;;;;;23.30;29.50;;;;;;479541;245;1178;-71
2021/11/03 04:43:14;;;;;;;;;;;23.20;29.60;;;;;;479508;248;1222;-71
2021/11/03 04:45:16;;;;;;;;;;;23.20;29.70;;;;;;479452;248;1032;-71
2021/11/03 04:47:17;;;;;;;;;;;23.40;29.50;;;;;;479484;248;1130;-71
2021/11/03 04:49:19;;;;;;;;;;;23.20;29.50;;;;;;479590;248;1034;-71
2021/11/03 04:51:20;;;;;;;;;;;23.00;29.70;;;;;;479489;248;1232;-71
2021/11/03 04:53:22;;;;;;;;;;;22.80;30.00;;;;;;479550;248;1125;-71
2021/11/03 04:55:22;;;;;;;;;;;23.00;29.70;;;;;;479526;243;1351;-71
2021/11/03 04:57:24;;;;;;;;;;;23.30;29.60;;;;;;479474;248;1177;-71
2021/11/03 04:59:25;;;;;;;;;;;23.50;29.40;;;;;;479454;248;2119;-71
2021/11/03 05:01:27;;;;;;;;;;;23.50;29.30;;;;;;479462;248;1224;-71
2021/11/03 05:03:28;;;;;;;;;;;23.60;29.30;;;;;;479583;248;1164;-71
2021/11/03 05:05:29;;;;;;;;;;;23.40;29.30;;;;;;479569;248;1229;-71
2021/11/03 05:07:30;;;;;;;;;;;23.20;29.60;;;;;;479479;248;1151;-71
2021/11/03 05:09:32;;;;;;;;;;;23.30;29.40;;;;;;479391;248;1190;-71
2021/11/03 05:11:33;;;;;;;;;;;23.50;29.30;;;;;;479312;248;1211;-71
2021/11/03 05:13:35;;;;;;;;;;;23.40;29.30;;;;;;479474;248;1034;-71
2021/11/03 05:15:36;;;;;;;;;;;23.50;29.30;;;;;;479403;248;1223;-71
2021/11/03 05:17:37;;;;;;;;;;;23.30;29.40;;;;;;479396;248;1310;-71
2021/11/03 05:19:38;;;;;;;;;;;23.30;29.50;;;;;;479469;248;2146;-71
2021/11/03 05:21:40;;;;;;;;;;;23.50;29.20;;;;;;479342;246;1171;-71
2021/11/03 05:23:41;;;;;;;;;;;23.30;29.40;;;;;;479379;248;1096;-70
2021/11/03 05:25:42;;;;;;;;;;;23.20;29.40;;;;;;479458;248;1147;-70
2021/11/03 05:27:44;;;;;;;;;;;23.10;29.60;;;;;;479434;248;1263;-70
2021/11/03 05:29:45;;;;;;;;;;;23.40;29.30;;;;;;479441;248;1130;-70
2021/11/03 05:31:46;;;;;;;;;;;23.50;29.20;;;;;;479361;248;1193;-71
2021/11/03 05:33:48;;;;;;;;;;;23.60;29.10;;;;;;479355;248;997;-71
2021/11/03 05:35:49;;;;;;;;;;;23.60;29.00;;;;;;479349;248;1225;-71
2021/11/03 05:37:50;;;;;;;;;;;23.70;29.00;;;;;;479326;248;1258;-71
2021/11/03 05:39:52;;;;;;;;;;;23.40;29.10;;;;;;479355;248;2177;-71
2021/11/03 05:41:53;;;;;;;;;;;23.60;29.10;;;;;;479304;248;1134;-71
2021/11/03 05:43:55;;;;;;;;;;;23.70;29.00;;;;;;479269;248;1063;-71
2021/11/03 05:45:56;;;;;;;;;;;23.70;28.90;;;;;;479146;248;1268;-71
2021/11/03 05:47:57;;;;;;;;;;;23.50;29.10;;;;;;479322;248;1349;-70
2021/11/03 05:49:58;;;;;;;;;;;23.60;29.10;;;;;;479379;248;980;-70
2021/11/03 05:52:00;;;;;;;;;;;23.60;29.10;;;;;;479218;248;1157;-70
2021/11/03 05:54:01;;;;;;;;;;;23.40;29.10;;;;;;479241;248;1056;-70
2021/11/03 05:56:03;;;;;;;;;;;23.20;29.50;;;;;;479350;248;1146;-70
2021/11/03 05:58:04;;;;;;;;;;;23.10;29.50;;;;;;479338;248;1172;-70
2021/11/03 06:00:06;;;;;;;;;;;23.40;29.30;;;;;;479278;248;2186;-70
2021/11/03 06:02:06;;;;;;;;;;;23.60;29.10;;;;;;479296;248;1371;-71
2021/11/03 06:04:08;;;;;;;;;;;23.70;29.00;;;;;;479236;248;1097;-71
2021/11/03 06:06:09;;;;;;;;;;;23.80;28.90;;;;;;479177;248;1193;-71
2021/11/03 06:08:10;;;;;;;;;;;23.60;28.90;;;;;;479205;248;1158;-71
2021/11/03 06:10:13;;;;;;;;;;;23.40;29.10;;;;;;479204;248;1056;-71
2021/11/03 06:12:14;;;;;;;;;;;23.60;29.10;;;;;;479113;248;1266;-71
2021/11/03 06:14:16;;;;;;;;;;;23.40;29.30;;;;;;479210;248;1286;-71
2021/11/03 06:16:17;;;;;;;;;;;23.40;29.30;;;;;;479138;248;1397;-70
2021/11/03 06:18:18;;;;;;;;;;;23.30;29.30;;;;;;479246;248;1194;-70
2021/11/03 06:20:20;;;;;;;;;;;23.50;29.20;;;;;;479199;248;2190;-70
2021/11/03 06:22:21;;;;;;;;;;;23.10;29.30;;;;;;479153;248;1139;-70
2021/11/03 06:24:23;;;;;;;;;;;23.30;29.30;;;;;;479246;248;986;-71
2021/11/03 06:26:24;;;;;;;;;;;23.40;29.20;;;;;;479185;248;1137;-71
2021/11/03 06:28:25;;;;;;;;;;;23.00;29.40;;;;;;479225;248;1026;-71
2021/11/03 06:30:27;;;;;;;;;;;23.40;29.20;;;;;;479156;248;1240;-70
2021/11/03 06:32:28;;;;;;;;;;;23.20;29.50;;;;;;479208;248;1204;-71
2021/11/03 06:34:29;;;;;;;;;;;23.30;29.30;;;;;;479207;248;1073;-70
2021/11/03 06:36:31;;;;;;;;;;;23.40;29.20;;;;;;479172;248;1280;-70
2021/11/03 06:38:32;;;;;;;;;;;22.80;29.60;;;;;;479123;248;1148;-70
2021/11/03 06:40:33;;;;;;;;;;;23.20;29.50;;;;;;479140;248;2186;-70
2021/11/03 06:42:35;;;;;;;;;;;23.10;29.40;;;;;;479154;248;991;-70
2021/11/03 06:44:36;;;;;;;;;;;23.40;29.30;;;;;;478971;248;1050;-71
2021/11/03 06:46:38;;;;;;;;;;;23.50;29.20;;;;;;479014;248;1198;-71
2021/11/03 06:48:39;;;;;;;;;;;23.30;29.20;;;;;;479098;248;1221;-70
2021/11/03 06:50:40;;;;;;;;;;;23.10;29.70;;;;;;479062;248;1027;-71
2021/11/03 06:52:42;;;;;;;;;;;23.30;29.20;;;;;;479200;248;1095;-71
2021/11/03 06:54:43;;;;;;;;;;;23.00;29.50;;;;;;479077;248;1137;-70
2021/11/03 06:56:44;;;;;;;;;;;23.10;29.50;;;;;;478991;248;1318;-70
2021/11/03 06:58:46;;;;;;;;;;;23.00;29.50;;;;;;479065;248;1030;-71
2021/11/03 07:00:47;;;;;;;;;;;22.70;29.70;;;;;;478918;248;2182;-70
2021/11/03 07:02:48;;;;;;;;;;;23.00;29.80;;;;;;479007;248;1122;-70
2021/11/03 07:04:50;;;;;;;;;;;23.00;29.50;;;;;;478996;248;1161;-70
2021/11/03 07:06:51;;;;;;;;;;;23.20;29.60;;;;;;479024;248;1204;-71
2021/11/03 07:08:54;;;;;;;;;;;23.40;29.30;;;;;;479020;248;1094;-70
2021/11/03 07:10:54;;;;;;;;;;;23.20;29.50;;;;;;478829;245;1400;-71
2021/11/03 07:12:55;;;;;;;;;;;23.20;29.40;;;;;;479024;248;1054;-71
2021/11/03 07:14:56;;;;;;;;;;;23.10;29.40;;;;;;478999;248;1265;-71
2021/11/03 07:16:58;;;;;;;;;;;23.10;29.60;;;;;;478960;248;1194;-70
2021/11/03 07:18:59;;;;;;;;;;;23.40;29.40;;;;;;479062;248;1218;-70
2021/11/03 07:21:00;;;;;;;;;;;23.00;29.70;;;;;;478881;248;2339;-70
2021/11/03 07:23:02;;;;;;;;;;;23.20;29.60;;;;;;479012;248;1247;-71
2021/11/03 07:25:03;;;;;;;;;;;23.10;29.50;;;;;;478952;248;1078;-71
2021/11/03 07:27:04;;;;;;;;;;;23.40;29.40;;;;;;479000;248;1160;-70
2021/11/03 07:29:05;;;;;;;;;;;23.20;29.50;;;;;;478747;248;1160;-70
2021/11/03 07:31:07;;;;;;;;;;;23.20;29.50;;;;;;478864;248;1370;-70
2021/11/03 07:33:08;;;;;;;;;;;23.40;29.30;;;;;;478930;248;1204;-70
2021/11/03 07:35:10;;;;;;;;;;;22.90;29.70;;;;;;478758;247;1078;-71
2021/11/03 07:37:11;;;;;;;;;;;23.10;29.60;;;;;;478686;248;1416;-71
2021/11/03 07:39:12;;;;;;;;;;;23.30;29.60;;;;;;478702;248;1040;-71
2021/11/03 07:41:14;;;;;;;;;;;23.20;29.60;;;;;;478557;248;2123;-71
2021/11/03 07:43:17;;;;;;;;;;;23.00;29.60;;;;;;478798;248;1049;-71
2021/11/03 07:45:18;;;;;;;;;;;23.10;29.70;;;;;;479008;248;1055;-71
2021/11/03 07:47:19;;;;;;;;;;;23.20;29.70;;;;;;478847;248;1147;-71
2021/11/03 07:49:21;;;;;;;;;;;23.20;29.70;;;;;;478697;248;1181;-71
2021/11/03 07:51:22;;;;;;;;;;;23.20;29.60;;;;;;478761;248;1206;-71
2021/11/03 07:53:23;;;;;;;;;;;23.20;29.70;;;;;;478660;248;1125;-70
2021/11/03 07:55:25;;;;;;;;;;;23.10;29.80;;;;;;478466;248;1013;-71
2021/11/03 07:57:26;;;;;;;;;;;23.20;29.70;;;;;;478921;248;1256;-71
2021/11/03 07:59:27;;;;;;;;;;;23.20;29.70;;;;;;479503;248;990;-71
2021/11/03 08:01:28;;;;;;;;;;;23.30;29.70;;;;;;478688;248;2193;-71
2021/11/03 08:03:30;;;;;;;;;;;23.40;29.60;;;;;;479240;248;1072;-71
2021/11/03 08:05:32;;;;;;;;;;;23.50;29.60;;;;;;479052;248;1247;-71
2021/11/03 08:07:32;;;;;;;;;;;23.50;29.50;;;;;;478667;248;1537;-71
2021/11/03 08:09:35;;;;;;;;;;;23.40;29.50;;;;;;478715;248;1066;-71
2021/11/03 08:11:37;;;;;;;;;;;23.60;29.40;;;;;;478752;248;1958;-71
2021/11/03 08:13:37;;;;;;;;;;;23.60;29.50;;;;;;478739;248;1280;-71
2021/11/03 08:15:38;;;;;;;;;;;23.40;29.60;;;;;;478418;248;1338;-70
2021/11/03 08:17:39;;;;;;;;;;;23.30;29.80;;;;;;478873;248;1167;-70
2021/11/03 08:19:42;;;;;;;;;;;23.40;29.70;;;;;;478650;248;1210;-70
2021/11/03 08:21:43;;;;;;;;;;;23.30;29.60;;;;;;479366;246;2190;-70
2021/11/03 08:23:44;;;;;;;;;;;23.40;29.80;;;;;;478708;248;969;-71
2021/11/03 08:25:46;;;;;;;;;;;23.40;29.70;;;;;;479086;248;1330;-71
2021/11/03 08:27:47;;;;;;;;;;;23.60;29.50;;;;;;479192;248;1025;-71
2021/11/03 08:29:48;;;;;;;;;;;23.60;29.50;;;;;;479224;248;747;-71
2021/11/03 08:31:51;;;;;;;;;;;23.30;29.70;;;;;;479101;248;1170;-71
2021/11/03 08:33:51;;;;;;;;;;;23.40;29.70;;;;;;478486;248;2469;-71
2021/11/03 08:35:53;;;;;;;;;;;23.50;29.70;;;;;;478420;248;1415;-71
2021/11/03 08:37:54;;;;;;;;;;;23.30;29.90;;;;;;479297;248;958;-71
2021/11/03 08:39:55;;;;;;;;;;;23.50;29.80;;;;;;478640;248;949;-70
2021/11/03 08:41:57;;;;;;;;;;;23.50;29.80;;;;;;478486;248;2195;-71
2021/11/03 08:43:58;;;;;;;;;;;23.30;29.90;;;;;;478742;248;1155;-71
2021/11/03 08:46:00;;;;;;;;;;;23.30;29.90;;;;;;478571;248;1229;-70
2021/11/03 08:48:01;;;;;;;;;;;23.40;29.90;;;;;;478598;248;1408;-70
2021/11/03 08:50:02;;;;;;;;;;;23.40;29.90;;;;;;478629;248;1228;-70
2021/11/03 08:52:04;;;;;;;;;;;23.20;30.00;;;;;;478831;248;1104;-71
2021/11/03 08:54:07;;;;;;;;;;;23.20;30.00;;;;;;479001;248;1116;-71
2021/11/03 08:56:08;;;;;;;;;;;23.10;30.20;;;;;;478593;248;1322;-71
2021/11/03 08:58:08;;;;;;;;;;;23.30;30.20;;;;;;478691;248;1231;-71
2021/11/03 09:00:09;;;;;;;;;;;23.30;30.20;;;;;;478497;248;1061;-70
2021/11/03 09:02:11;;;;;;;;;;;23.30;30.10;;;;;;478580;248;2135;-71
2021/11/03 09:04:12;;;;;;;;;;;23.30;30.20;;;;;;479008;248;1147;-71
2021/11/03 09:06:13;;;;;;;;;;;23.50;30.00;;;;;;478977;246;1450;-71
2021/11/03 09:08:15;;;;;;;;;;;23.50;30.00;;;;;;479201;248;1054;-71
2021/11/03 09:10:17;;;;;;;;;;;23.50;30.00;;;;;;478617;248;791;-71
2021/11/03 09:12:18;;;;;;;;;;;23.60;30.00;;;;;;478833;248;1294;-71
2021/11/03 09:14:20;;;;;;;;;;;23.70;30.00;;;;;;478356;248;1023;-71
2021/11/03 09:16:20;;;;;;;;;;;23.50;30.00;;;;;;478263;248;2001;-71
2021/11/03 09:18:21;;;;;;;;;;;23.50;30.10;;;;;;479176;248;1069;-71
2021/11/03 09:20:23;;;;;;;;;;;23.40;30.30;;;;;;478911;248;1198;-71
2021/11/03 09:22:24;;;;;;;;;;;23.40;30.20;;;;;;478557;248;2178;-71
2021/11/03 09:24:25;;;;;;;;;;;23.40;30.30;;;;;;478652;248;1086;-71
2021/11/03 09:26:27;;;;;;;;;;;23.60;30.20;;;;;;478578;246;1125;-71
2021/11/03 09:28:28;;;;;;;;;;;23.60;30.30;;;;;;478692;248;1064;-71
2021/11/03 09:30:29;;;;;;;;;;;23.60;30.20;;;;;;478272;248;1124;-71
2021/11/03 09:32:33;;;;;;;;;;;23.60;30.20;;;;;;478535;248;1437;-71
2021/11/03 09:34:34;;;;;;;;;;;23.70;30.20;;;;;;478593;249;1298;-71
2021/11/03 09:36:35;;;;;;;;;;;23.60;30.20;;;;;;478970;248;1079;-71
2021/11/03 09:38:37;;;;;;;;;;;23.60;30.30;;;;;;478815;248;993;-71
2021/11/03 09:40:38;;;;;;;;;;;23.60;30.20;;;;;;478693;248;1426;-71
2021/11/03 09:42:39;;;;;;;;;;;23.60;30.40;;;;;;478660;248;2219;-71
2021/11/03 09:44:42;;;;;;;;;;;23.60;30.50;;;;;;478358;248;1020;-71
2021/11/03 09:46:42;;;;;;;;;;;23.50;30.60;;;;;;478368;248;1292;-71
2021/11/03 09:48:43;;;;;;;;;;;23.60;30.40;;;;;;478356;248;1102;-71
2021/11/03 09:50:45;;;;;;;;;;;23.60;30.60;;;;;;478247;248;1243;-71
2021/11/03 09:52:46;;;;;;;;;;;23.60;30.60;;;;;;478386;248;1593;-71
2021/11/03 09:54:48;;;;;;;;;;;23.60;30.60;;;;;;478529;248;1212;-71
2021/11/03 09:56:49;;;;;;;;;;;23.60;30.60;;;;;;478399;248;1333;-71
2021/11/03 09:58:50;;;;;;;;;;;23.70;30.60;;;;;;478497;248;1127;-71
2021/11/03 10:00:52;;;;;;;;;;;23.50;30.80;;;;;;478365;248;2202;-71
2021/11/03 10:02:53;;;;;;;;;;;23.70;30.60;;;;;;478568;248;1175;-71
2021/11/03 10:04:54;;;;;;;;;;;23.60;30.80;;;;;;478686;248;1160;-72
2021/11/03 10:06:55;;;;;;;;;;;23.60;30.90;;;;;;478618;248;1378;-71
2021/11/03 10:08:57;;;;;;;;;;;23.80;30.70;;;;;;478631;248;1200;-71
2021/11/03 10:10:58;;;;;;;;;;;23.70;30.60;;;;;;478595;248;1300;-71
2021/11/03 10:12:59;;;;;;;;;;;23.80;30.80;;;;;;478627;248;1073;-71
2021/11/03 10:15:01;;;;;;;;;;;23.80;30.70;;;;;;478611;248;1042;-71
2021/11/03 10:17:03;;;;;;;;;;;23.90;30.60;;;;;;478552;248;1094;-71
2021/11/03 10:19:05;;;;;;;;;;;23.80;30.80;;;;;;478583;248;1054;-71
2021/11/03 10:21:06;;;;;;;;;;;23.80;30.80;;;;;;478544;246;2146;-71
2021/11/03 10:23:08;;;;;;;;;;;23.70;31.00;;;;;;479587;240;1095;-71
2021/11/03 10:25:10;;;;;;;;;;;23.90;30.90;;;;;;479072;248;817;-71
2021/11/03 10:27:12;;;;;;;;;;;23.80;31.00;;;;;;478937;248;1355;-71
2021/11/03 10:29:13;;;;;;;;;;;23.70;31.10;;;;;;479119;248;767;-71
2021/11/03 10:31:14;;;;;;;;;;;23.70;31.30;;;;;;478489;245;1125;-71
2021/11/03 10:33:16;;;;;;;;;;;23.80;31.10;;;;;;478834;248;1039;-71
2021/11/03 10:35:17;;;;;;;;;;;23.80;31.10;;;;;;478696;248;1175;-71
2021/11/03 10:37:18;;;;;;;;;;;23.80;31.20;;;;;;478559;248;1155;-72
2021/11/03 10:39:20;;;;;;;;;;;23.70;31.30;;;;;;478523;248;1033;-71
2021/11/03 10:41:21;;;;;;;;;;;23.80;31.20;;;;;;478523;245;2202;-71
2021/11/03 10:43:23;;;;;;;;;;;23.90;31.20;;;;;;478850;248;1094;-71
2021/11/03 10:45:24;;;;;;;;;;;23.70;31.30;;;;;;478998;248;757;-71
2021/11/03 10:47:25;;;;;;;;;;;23.80;31.30;;;;;;478399;247;1153;-71
2021/11/03 10:49:31;;;;;;;;;;;23.70;31.40;;;;;;479255;248;838;-71
2021/11/03 10:51:32;;;;;;;;;;;23.80;31.50;;;;;;478507;248;2128;-71
2021/11/03 10:53:34;;;;;;;;;;;23.70;31.60;;;;;;478655;248;1045;-71
2021/11/03 10:55:35;;;;;;;;;;;23.60;31.70;;;;;;478610;246;1164;-71
2021/11/03 10:57:36;;;;;;;;;;;23.70;31.70;;;;;;478780;248;1189;-71
2021/11/03 10:59:38;;;;;;;;;;;23.60;31.80;;;;;;478500;248;848;-71
2021/11/03 11:01:44;;;;;;;;;;;23.70;31.80;;;;;;478459;248;2181;-71
2021/11/03 11:03:40;;;;;;;;;;;23.70;31.70;;;;;;478151;248;1355;-71
2021/11/03 11:05:42;;;;;;;;;;;23.60;31.80;;;;;;478357;248;1239;-71
2021/11/03 11:07:43;;;;;;;;;;;23.70;31.80;;;;;;478564;248;1080;-71
2021/11/03 11:09:44;;;;;;;;;;;23.70;31.80;;;;;;478435;248;984;-71
2021/11/03 11:11:47;;;;;;;;;;;23.30;32.10;;;;;;478520;248;1062;-71
2021/11/03 11:13:48;;;;;;;;;;;23.50;32.20;;;;;;479144;248;1097;-71
2021/11/03 11:15:51;;;;;;;;;;;23.70;31.90;;;;;;478789;244;1206;-71
2021/11/03 11:17:52;;;;;;;;;;;23.50;32.10;;;;;;478864;248;1305;-71
2021/11/03 11:19:52;;;;;;;;;;;23.20;32.50;;;;;;479131;248;857;-71
2021/11/03 11:21:54;;;;;;;;;;;23.40;32.40;;;;;;478689;248;2218;-71
2021/11/03 11:23:55;;;;;;;;;;;23.30;32.30;;;;;;478698;248;1133;-71
2021/11/03 11:25:56;;;;;;;;;;;22.80;33.20;;;;;;478332;245;1149;-71
2021/11/03 11:27:58;;;;;;;;;;;23.10;32.80;;;;;;478685;248;1000;-71
2021/11/03 11:29:59;;;;;;;;;;;23.00;32.90;;;;;;478674;248;1047;-71
2021/11/03 11:32:00;;;;;;;;;;;23.00;33.00;;;;;;478745;248;1195;-71
2021/11/03 11:34:02;;;;;;;;;;;23.20;32.80;;;;;;478633;248;1102;-70
2021/11/03 11:36:03;;;;;;;;;;;23.20;32.70;;;;;;478636;248;1208;-71
2021/11/03 11:38:04;;;;;;;;;;;23.30;32.60;;;;;;478725;248;1074;-71
2021/11/03 11:40:06;;;;;;;;;;;23.20;32.70;;;;;;478613;248;1024;-70
2021/11/03 11:42:07;;;;;;;;;;;23.30;32.60;;;;;;478616;246;2205;-71
2021/11/03 11:44:08;;;;;;;;;;;23.20;32.90;;;;;;478673;248;1066;-71
2021/11/03 11:46:10;;;;;;;;;;;23.30;32.80;;;;;;478444;248;1108;-71
2021/11/03 11:48:11;;;;;;;;;;;23.20;32.80;;;;;;478647;248;1283;-71
2021/11/03 11:50:13;;;;;;;;;;;23.10;32.90;;;;;;478604;248;1064;-71
2021/11/03 11:52:14;;;;;;;;;;;23.20;33.00;;;;;;478515;248;1311;-71
2021/11/03 11:54:15;;;;;;;;;;;23.20;32.90;;;;;;478419;248;1091;-71
2021/11/03 11:56:18;;;;;;;;;;;23.30;32.90;;;;;;478459;248;1160;-71